Time;durP1;ratioP1;P1;durP2;ratioP2;P2;SDS_P1;SDS_P2;PMS_P1;PMS_P2;Temp;Humidity;BMP_temperature;BMP_pressure;BME280_temperature;BME280_humidity;BME280_pressure;Samples;Min_cycle;Max_cycle;Signal;HPM_P1;HPM_P2
2022/08/03 00:02:00;;;;;;;2.83;2.80;;;;;;;;;;6002863;23;20428;-87
2022/08/03 00:04:46;;;;;;;2.97;2.97;;;;;;;;;;6004717;23;20417;-88
2022/08/03 00:07:12;;;;;;;2.77;2.67;;;;;;;;;;6002204;23;20490;-87
2022/08/03 00:09:38;;;;;;;2.70;2.70;;;;;;;;;;6005280;23;20898;-87
2022/08/03 00:12:04;;;;;;;2.73;2.63;;;;;;;;;;6002877;23;20405;-88
2022/08/03 00:14:30;;;;;;;3.60;3.53;;;;;;;;;;6004694;23;20408;-87
2022/08/03 00:16:56;;;;;;;3.53;3.43;;;;;;;;;;6003223;23;20483;-88
2022/08/03 00:19:23;;;;;;;3.53;3.43;;;;;;;;;;6004165;23;20407;-88
2022/08/03 00:21:49;;;;;;;3.10;3.00;;;;;;;;;;6002636;23;20523;-87
2022/08/03 00:24:15;;;;;;;3.17;2.97;;;;;;;;;;6003037;23;20400;-89
2022/08/03 00:26:41;;;;;;;3.97;3.27;;;;;;;;;;6002670;23;20400;-88
2022/08/03 00:29:06;;;;;;;3.13;3.10;;;;;;;;;;6005006;23;20471;-88
2022/08/03 00:31:32;;;;;;;3.17;3.00;;;;;;;;;;6005490;23;20484;-88
2022/08/03 00:33:58;;;;;;;3.97;3.50;;;;;;;;;;6004875;23;20459;-88
2022/08/03 00:36:24;;;;;;;3.17;3.07;;;;;;;;;;6004430;23;20424;-88
2022/08/03 00:38:50;;;;;;;9.10;4.70;;;;;;;;;;6005330;23;20409;-88
2022/08/03 00:41:16;;;;;;;3.93;3.40;;;;;;;;;;6002549;23;20874;-89
2022/08/03 00:43:43;;;;;;;3.93;3.73;;;;;;;;;;6006276;23;21169;-88
2022/08/03 00:46:09;;;;;;;3.10;3.00;;;;;;;;;;6003783;23;20400;-89
2022/08/03 00:48:35;;;;;;;3.53;3.33;;;;;;;;;;6019031;23;20380;-88
2022/08/03 00:51:01;;;;;;;3.10;3.10;;;;;;;;;;6027435;23;20388;-88
2022/08/03 00:53:28;;;;;;;3.57;3.30;;;;;;;;;;6025686;23;20357;-88
2022/08/03 00:55:53;;;;;;;4.53;4.30;;;;;;;;;;6011700;23;20399;-87
2022/08/03 00:58:19;;;;;;;3.13;3.03;;;;;;;;;;6003712;23;20397;-88
2022/08/03 01:00:45;;;;;;;3.50;3.30;;;;;;;;;;6004990;23;21245;-88
2022/08/03 01:03:11;;;;;;;3.37;3.37;;;;;;;;;;6002771;23;20522;-87
2022/08/03 01:05:44;;;;;;;3.20;3.20;;;;;;;;;;6004429;23;20396;-87
2022/08/03 01:08:20;;;;;;;3.30;3.10;;;;;;;;;;6003325;23;20384;-86
2022/08/03 01:10:53;;;;;;;3.77;3.67;;;;;;;;;;6006843;23;20412;-87
2022/08/03 01:13:19;;;;;;;3.43;3.17;;;;;;;;;;6003839;23;20385;-87
2022/08/03 01:15:45;;;;;;;3.50;3.40;;;;;;;;;;6004431;23;20741;-88
2022/08/03 01:18:17;;;;;;;3.63;3.53;;;;;;;;;;6002697;23;20878;-87
2022/08/03 01:20:48;;;;;;;3.00;2.83;;;;;;;;;;6004696;23;20771;-87
2022/08/03 01:23:33;;;;;;;3.27;3.07;;;;;;;;;;5999286;23;20458;-87
2022/08/03 01:26:17;;;;;;;3.63;3.33;;;;;;;;;;6006122;23;20460;-87
2022/08/03 01:28:43;;;;;;;3.53;3.53;;;;;;;;;;6006503;23;20710;-87
2022/08/03 01:31:10;;;;;;;3.90;3.80;;;;;;;;;;6003466;23;20436;-87
2022/08/03 01:33:40;;;;;;;3.80;3.60;;;;;;;;;;6006032;23;20714;-86
2022/08/03 01:36:29;;;;;;;4.17;3.80;;;;;;;;;;6005785;23;20451;-87
2022/08/03 01:38:58;;;;;;;3.50;3.43;;;;;;;;;;6016435;23;20392;-94
2022/08/03 01:41:29;;;;;;;3.93;3.63;;;;;;;;;;6014995;23;20889;-88
2022/08/03 01:43:57;;;;;;;3.67;3.57;;;;;;;;;;6025062;23;20830;-94
2022/08/03 01:46:24;;;;;;;3.33;3.20;;;;;;;;;;6025018;23;20389;-94
2022/08/03 01:48:50;;;;;;;3.30;3.27;;;;;;;;;;6024754;23;20392;-94
2022/08/03 01:51:18;;;;;;;4.30;3.37;;;;;;;;;;6027859;23;20381;-93
2022/08/03 01:53:44;;;;;;;3.20;3.20;;;;;;;;;;6026186;23;20394;-93
2022/08/03 01:56:10;;;;;;;4.23;3.40;;;;;;;;;;6026907;23;20472;-94
2022/08/03 01:58:37;;;;;;;3.80;3.67;;;;;;;;;;6026443;23;20440;-93
2022/08/03 02:01:06;;;;;;;3.97;3.67;;;;;;;;;;6027772;23;20416;-93
2022/08/03 02:03:36;;;;;;;5.47;3.30;;;;;;;;;;6027741;23;20521;-93
2022/08/03 02:06:02;;;;;;;3.83;3.73;;;;;;;;;;6025082;23;20403;-93
2022/08/03 02:08:32;;;;;;;4.43;4.10;;;;;;;;;;6024537;23;20412;-94
2022/08/03 02:10:58;;;;;;;3.60;3.57;;;;;;;;;;6023491;23;20452;-93
2022/08/03 02:13:25;;;;;;;3.83;3.53;;;;;;;;;;6022898;23;20395;-94
2022/08/03 02:15:51;;;;;;;4.20;4.10;;;;;;;;;;6024356;23;20392;-93
2022/08/03 02:18:19;;;;;;;4.73;4.53;;;;;;;;;;6026146;23;20388;-94
2022/08/03 02:20:45;;;;;;;3.83;3.73;;;;;;;;;;6024943;23;20393;-94
2022/08/03 02:23:12;;;;;;;4.23;4.13;;;;;;;;;;6022299;23;20416;-94
2022/08/03 02:25:43;;;;;;;8.53;4.47;;;;;;;;;;6024543;23;20575;-94
2022/08/03 02:28:11;;;;;;;6.13;4.60;;;;;;;;;;6024557;23;20412;-94
2022/08/03 02:30:38;;;;;;;4.33;4.13;;;;;;;;;;6025407;23;20424;-94
2022/08/03 02:33:05;;;;;;;4.00;4.00;;;;;;;;;;6027395;23;20385;-93
2022/08/03 02:35:32;;;;;;;4.17;3.97;;;;;;;;;;6027488;23;20401;-94
2022/08/03 02:38:01;;;;;;;3.83;3.63;;;;;;;;;;6024605;23;20400;-93
2022/08/03 02:40:28;;;;;;;3.63;3.53;;;;;;;;;;6025712;23;20388;-94
2022/08/03 02:42:57;;;;;;;4.10;3.97;;;;;;;;;;6029295;23;20443;-94
2022/08/03 02:45:24;;;;;;;5.70;3.77;;;;;;;;;;6026746;23;20397;-93
2022/08/03 02:47:54;;;;;;;4.30;4.10;;;;;;;;;;6028648;23;20412;-94
2022/08/03 02:50:21;;;;;;;3.50;3.40;;;;;;;;;;6033207;23;20404;-93
2022/08/03 02:52:51;;;;;;;4.30;4.20;;;;;;;;;;6034113;23;20404;-94
2022/08/03 02:55:17;;;;;;;4.50;4.30;;;;;;;;;;6034454;23;20393;-93
2022/08/03 02:57:44;;;;;;;3.50;3.30;;;;;;;;;;6034114;23;20395;-94
2022/08/03 03:00:11;;;;;;;4.60;4.30;;;;;;;;;;6034820;23;20419;-94
2022/08/03 03:02:37;;;;;;;3.90;3.80;;;;;;;;;;6033283;23;20461;-94
2022/08/03 03:05:04;;;;;;;3.80;3.60;;;;;;;;;;6034761;23;20404;-94
2022/08/03 03:07:30;;;;;;;3.90;3.80;;;;;;;;;;6032261;23;20415;-93
2022/08/03 03:09:57;;;;;;;4.07;3.73;;;;;;;;;;6031012;23;20408;-93
2022/08/03 03:12:24;;;;;;;3.60;3.57;;;;;;;;;;6031608;23;20437;-94
2022/08/03 03:14:50;;;;;;;3.73;3.40;;;;;;;;;;6030607;23;20411;-93
2022/08/03 03:17:19;;;;;;;4.00;3.70;;;;;;;;;;6034588;23;20369;-94
2022/08/03 03:19:46;;;;;;;3.97;3.87;;;;;;;;;;6036590;23;20389;-93
2022/08/03 03:22:13;;;;;;;4.07;3.77;;;;;;;;;;6033232;23;20448;-90
2022/08/03 03:24:41;;;;;;;3.77;3.77;;;;;;;;;;6035217;23;20352;-94
2022/08/03 03:27:07;;;;;;;4.00;3.70;;;;;;;;;;6034011;23;20440;-93
2022/08/03 03:29:34;;;;;;;3.50;3.30;;;;;;;;;;6034404;23;20569;-93
2022/08/03 03:32:01;;;;;;;6.53;3.80;;;;;;;;;;6033223;23;20365;-90
2022/08/03 03:34:28;;;;;;;3.47;3.37;;;;;;;;;;6028428;23;20404;-92
2022/08/03 03:36:54;;;;;;;3.83;3.63;;;;;;;;;;6027546;23;20408;-93
2022/08/03 03:39:20;;;;;;;3.83;3.53;;;;;;;;;;6029765;23;20380;-95
2022/08/03 03:41:46;;;;;;;4.10;3.70;;;;;;;;;;6027350;23;20476;-93
2022/08/03 03:44:12;;;;;;;3.77;3.57;;;;;;;;;;6027358;23;20456;-90
2022/08/03 03:46:38;;;;;;;5.47;3.40;;;;;;;;;;6024674;23;20742;-93
2022/08/03 03:49:06;;;;;;;4.03;3.73;;;;;;;;;;6026357;23;20408;-94
2022/08/03 03:51:32;;;;;;;4.10;3.90;;;;;;;;;;6026845;23;20508;-92
2022/08/03 03:54:05;;;;;;;4.60;4.17;;;;;;;;;;6025450;23;20385;-94
2022/08/03 03:56:31;;;;;;;3.83;3.53;;;;;;;;;;6025134;23;20391;-91
2022/08/03 03:58:57;;;;;;;3.80;3.60;;;;;;;;;;6026264;23;20381;-95
2022/08/03 04:01:24;;;;;;;3.73;3.63;;;;;;;;;;6025359;23;20393;-94
2022/08/03 04:03:50;;;;;;;4.33;4.00;;;;;;;;;;6027331;23;20468;-93
2022/08/03 04:11:48;;;;;;;4.47;4.00;;;;;;;;;;6025395;23;20425;-93
2022/08/03 04:14:17;;;;;;;5.20;4.50;;;;;;;;;;6025887;23;20416;-93
2022/08/03 04:16:46;;;;;;;4.07;3.87;;;;;;;;;;6025589;23;20762;-93
2022/08/03 04:19:15;;;;;;;4.80;4.40;;;;;;;;;;6024153;23;20393;-94
2022/08/03 04:21:42;;;;;;;4.07;3.77;;;;;;;;;;6025732;23;20432;-94
2022/08/03 04:24:09;;;;;;;4.60;4.40;;;;;;;;;;6022357;23;20465;-95
2022/08/03 04:26:36;;;;;;;4.10;3.70;;;;;;;;;;6027556;23;20381;-95
2022/08/03 04:29:03;;;;;;;4.03;3.60;;;;;;;;;;6028069;23;20400;-92
2022/08/03 04:31:32;;;;;;;4.13;3.87;;;;;;;;;;6028567;23;20428;-94
2022/08/03 04:33:59;;;;;;;5.60;4.70;;;;;;;;;;6027334;23;20377;-95
2022/08/03 04:36:26;;;;;;;4.57;4.47;;;;;;;;;;6026530;23;20404;-95
2022/08/03 04:38:57;;;;;;;4.17;3.90;;;;;;;;;;6024429;23;20369;-90
2022/08/03 04:41:24;;;;;;;4.97;4.20;;;;;;;;;;6026625;23;20416;-90
2022/08/03 04:43:51;;;;;;;5.33;4.90;;;;;;;;;;6027971;23;20457;-95
2022/08/03 04:46:18;;;;;;;4.17;4.10;;;;;;;;;;6031591;23;20399;-95
2022/08/03 04:48:45;;;;;;;4.83;4.43;;;;;;;;;;6033701;23;20381;-91
2022/08/03 04:51:11;;;;;;;5.43;4.93;;;;;;;;;;6034779;23;20393;-95
2022/08/03 04:53:37;;;;;;;5.20;4.80;;;;;;;;;;6029933;23;20475;-94
2022/08/03 04:56:04;;;;;;;10.73;5.13;;;;;;;;;;6027533;23;20389;-93
2022/08/03 04:58:30;;;;;;;4.60;4.27;;;;;;;;;;6022460;23;20866;-91
2022/08/03 05:00:56;;;;;;;4.20;4.00;;;;;;;;;;6021734;23;20397;-94
2022/08/03 05:03:23;;;;;;;4.47;4.17;;;;;;;;;;6020775;23;20432;-95
2022/08/03 05:05:49;;;;;;;6.50;5.00;;;;;;;;;;6024646;23;20396;-90
2022/08/03 05:08:15;;;;;;;5.57;5.17;;;;;;;;;;6027526;23;20396;-91
2022/08/03 05:10:41;;;;;;;5.60;4.47;;;;;;;;;;6029855;23;20821;-95
2022/08/03 05:13:12;;;;;;;4.50;4.13;;;;;;;;;;6027906;23;20396;-94
2022/08/03 05:15:38;;;;;;;6.97;4.30;;;;;;;;;;6026395;23;20425;-91
2022/08/03 05:18:07;;;;;;;5.03;4.63;;;;;;;;;;6026255;23;20392;-95
2022/08/03 05:20:36;;;;;;;5.80;4.50;;;;;;;;;;6026339;23;20460;-94
2022/08/03 05:23:02;;;;;;;5.10;4.63;;;;;;;;;;6023822;23;20432;-94
2022/08/03 05:25:31;;;;;;;5.23;4.73;;;;;;;;;;6028001;23;20399;-94
2022/08/03 05:28:00;;;;;;;5.33;5.00;;;;;;;;;;6026987;23;20400;-90
2022/08/03 05:30:26;;;;;;;5.40;4.87;;;;;;;;;;6026459;23;20441;-93
2022/08/03 05:32:52;;;;;;;4.67;4.37;;;;;;;;;;6023295;23;20397;-95
2022/08/03 05:35:24;;;;;;;5.23;4.77;;;;;;;;;;6024558;23;20456;-94
2022/08/03 05:37:50;;;;;;;6.30;5.83;;;;;;;;;;6025094;23;20388;-92
2022/08/03 05:40:18;;;;;;;6.00;5.40;;;;;;;;;;6025311;23;20398;-93
2022/08/03 05:42:44;;;;;;;5.53;5.27;;;;;;;;;;6025551;23;20428;-93
2022/08/03 05:45:14;;;;;;;6.13;5.57;;;;;;;;;;6028284;23;20401;-93
2022/08/03 05:47:44;;;;;;;5.97;5.57;;;;;;;;;;5994921;23;20467;-93
2022/08/03 05:50:13;;;;;;;7.67;5.23;;;;;;;;;;6004189;23;20401;-90
2022/08/03 05:52:41;;;;;;;6.67;5.33;;;;;;;;;;6003256;23;20429;-92
2022/08/03 05:55:08;;;;;;;5.57;4.97;;;;;;;;;;6001925;23;20944;-89
2022/08/03 05:57:34;;;;;;;8.50;6.80;;;;;;;;;;6004878;23;20401;-91
2022/08/03 06:00:01;;;;;;;7.93;6.00;;;;;;;;;;6003549;23;20421;-94
2022/08/03 06:02:27;;;;;;;6.93;6.27;;;;;;;;;;6000436;23;20520;-93
2022/08/03 06:04:59;;;;;;;7.47;6.57;;;;;;;;;;6001833;23;20417;-94
2022/08/03 06:07:25;;;;;;;6.77;6.30;;;;;;;;;;6000132;24;20408;-90
2022/08/03 06:09:55;;;;;;;8.57;6.60;;;;;;;;;;6000930;23;20401;-91
2022/08/03 06:12:21;;;;;;;6.80;6.17;;;;;;;;;;6004771;23;20436;-92
2022/08/03 06:14:47;;;;;;;6.53;6.10;;;;;;;;;;6001843;23;20456;-91
2022/08/03 06:17:13;;;;;;;6.37;5.77;;;;;;;;;;6003083;23;20421;-90
2022/08/03 06:22:15;;;;;;;6.47;6.07;;;;;;;;;;6020533;23;20467;-87
2022/08/03 06:24:44;;;;;;;6.33;5.90;;;;;;;;;;6006511;23;20392;-92
2022/08/03 06:29:46;;;;;;;6.37;5.87;;;;;;;;;;6020549;23;20455;-91
2022/08/03 06:32:12;;;;;;;5.60;5.40;;;;;;;;;;6004774;23;20413;-90
2022/08/03 06:34:41;;;;;;;5.77;5.57;;;;;;;;;;6004346;23;20440;-89
2022/08/03 06:37:07;;;;;;;5.53;5.13;;;;;;;;;;6031485;23;20404;-90
2022/08/03 06:39:36;;;;;;;6.63;6.20;;;;;;;;;;6003778;23;20429;-92
2022/08/03 06:42:38;;;;;;;;;;;;;;;;;;;;;
2022/08/03 06:45:05;;;;;;;5.40;5.10;;;;;;;;;;6027551;23;20369;-91
2022/08/03 06:47:31;;;;;;;7.93;4.83;;;;;;;;;;6027328;23;20412;-90
2022/08/03 06:50:03;;;;;;;5.40;5.10;;;;;;;;;;6025559;23;20453;-92
2022/08/03 06:52:30;;;;;;;5.27;5.07;;;;;;;;;;5991217;23;20448;-91
2022/08/03 06:54:56;;;;;;;4.87;4.73;;;;;;;;;;6015130;23;20412;-91
2022/08/03 06:57:23;;;;;;;5.07;4.73;;;;;;;;;;6008430;23;21221;-91
2022/08/03 06:59:49;;;;;;;4.70;4.50;;;;;;;;;;6023283;23;20392;-90
2022/08/03 07:02:18;;;;;;;5.90;5.67;;;;;;;;;;6008665;23;20400;-92
2022/08/03 07:04:47;;;;;;;5.23;4.93;;;;;;;;;;6013753;23;20393;-92
2022/08/03 07:07:13;;;;;;;6.50;6.10;;;;;;;;;;5994264;23;20917;-93
2022/08/03 07:09:41;;;;;;;5.50;5.20;;;;;;;;;;6009255;23;20401;-89
2022/08/03 07:12:07;;;;;;;5.13;4.83;;;;;;;;;;6003049;23;20439;-90
2022/08/03 07:14:36;;;;;;;5.37;5.00;;;;;;;;;;5999768;23;20401;-91
2022/08/03 07:17:06;;;;;;;4.60;4.50;;;;;;;;;;6005256;23;20453;-90
2022/08/03 07:22:50;;;;;;;;;;;;;;;;;;;;;
2022/08/03 07:25:27;;;;;;;5.97;4.63;;;;;;;;;;5999840;23;20404;-88
2022/08/03 07:27:56;;;;;;;4.97;4.50;;;;;;;;;;6000817;23;20393;-91
2022/08/03 07:30:30;;;;;;;3.90;3.80;;;;;;;;;;5989606;23;20384;-92
2022/08/03 07:32:58;;;;;;;4.10;3.90;;;;;;;;;;5994057;23;20441;-92
2022/08/03 07:35:30;;;;;;;2.93;2.83;;;;;;;;;;6017711;23;20360;-90
2022/08/03 07:37:59;;;;;;;3.10;3.00;;;;;;;;;;5991640;23;20408;-93
2022/08/03 07:40:25;;;;;;;2.60;2.60;;;;;;;;;;5987383;23;20536;-92
2022/08/03 07:42:51;;;;;;;3.10;3.10;;;;;;;;;;5988121;23;20376;-91
2022/08/03 07:45:17;;;;;;;3.10;2.90;;;;;;;;;;6013423;23;20525;-95
2022/08/03 07:47:43;;;;;;;3.37;3.23;;;;;;;;;;6021225;23;20440;-95
2022/08/03 07:50:10;;;;;;;4.10;3.20;;;;;;;;;;6000005;23;20403;-96
2022/08/03 07:52:51;;;;;;;3.00;2.90;;;;;;;;;;6001995;23;20478;-96
2022/08/03 07:55:22;;;;;;;3.07;2.73;;;;;;;;;;6000489;23;20381;-88
2022/08/03 07:58:08;;;;;;;2.77;2.67;;;;;;;;;;5987746;23;20389;-92
2022/08/03 08:00:35;;;;;;;3.40;2.53;;;;;;;;;;5987916;23;20452;-93
2022/08/03 08:03:01;;;;;;;2.80;2.60;;;;;;;;;;5986031;23;20425;-93
2022/08/03 08:05:28;;;;;;;16.15;13.48;;;;;;;;;;5986037;23;20503;-93
2022/08/03 08:07:54;;;;;;;2.97;2.73;;;;;;;;;;5986287;23;20164;-93
2022/08/03 08:10:23;;;;;;;2.87;2.70;;;;;;;;;;6015674;23;20445;-92
2022/08/03 08:12:52;;;;;;;2.70;2.60;;;;;;;;;;6014355;23;20433;-91
2022/08/03 08:15:18;;;;;;;3.47;2.17;;;;;;;;;;6018723;23;20377;-92
2022/08/03 08:17:47;;;;;;;2.40;2.30;;;;;;;;;;5988267;23;20954;-94
2022/08/03 08:20:19;;;;;;;2.40;2.20;;;;;;;;;;5991407;23;20384;-89
2022/08/03 08:22:45;;;;;;;1.87;1.87;;;;;;;;;;6009001;23;20380;-93
2022/08/03 08:25:11;;;;;;;2.70;2.60;;;;;;;;;;5990020;23;20377;-93
2022/08/03 08:27:48;;;;;;;1.60;1.60;;;;;;;;;;5989161;23;20464;-93
2022/08/03 08:30:15;;;;;;;2.70;2.50;;;;;;;;;;5989567;23;20380;-92
2022/08/03 08:32:41;;;;;;;3.10;2.83;;;;;;;;;;5987403;23;20435;-92
2022/08/03 08:35:08;;;;;;;3.17;2.20;;;;;;;;;;5989203;23;20400;-94
2022/08/03 08:37:39;;;;;;;1.80;1.70;;;;;;;;;;6021140;23;20389;-90
2022/08/03 08:40:05;;;;;;;2.60;2.40;;;;;;;;;;5998883;23;20488;-94
2022/08/03 08:42:32;;;;;;;2.20;2.10;;;;;;;;;;5997170;23;20393;-93
2022/08/03 08:45:00;;;;;;;2.40;2.40;;;;;;;;;;5994387;23;20373;-94
2022/08/03 08:47:29;;;;;;;3.17;2.13;;;;;;;;;;5990743;23;20583;-92
2022/08/03 08:49:56;;;;;;;2.17;2.07;;;;;;;;;;5988500;23;20389;-93
2022/08/03 08:52:24;;;;;;;4.03;2.20;;;;;;;;;;5987125;23;20523;-92
2022/08/03 08:54:51;;;;;;;2.40;2.40;;;;;;;;;;6026380;23;20381;-92
2022/08/03 08:57:18;;;;;;;3.13;2.40;;;;;;;;;;5991367;23;20398;-94
2022/08/03 08:59:43;;;;;;;2.13;2.10;;;;;;;;;;5986605;23;20480;-93
2022/08/03 09:02:10;;;;;;;2.50;2.40;;;;;;;;;;5990465;23;20388;-94
2022/08/03 09:04:38;;;;;;;2.80;2.50;;;;;;;;;;6014800;23;20408;-91
2022/08/03 09:07:04;;;;;;;2.37;2.17;;;;;;;;;;5990010;23;20431;-92
2022/08/03 09:09:30;;;;;;;2.20;2.10;;;;;;;;;;5984694;23;20790;-94
2022/08/03 09:11:57;;;;;;;2.30;2.20;;;;;;;;;;5988610;23;20448;-93
2022/08/03 09:14:23;;;;;;;2.23;2.20;;;;;;;;;;5983559;23;20401;-92
2022/08/03 09:17:01;;;;;;;2.17;2.07;;;;;;;;;;5983778;23;20412;-90
2022/08/03 09:19:28;;;;;;;1.97;1.90;;;;;;;;;;5982394;23;20400;-92
2022/08/03 09:22:08;;;;;;;1.70;1.60;;;;;;;;;;5983026;23;20404;-92
2022/08/03 09:24:34;;;;;;;2.73;2.50;;;;;;;;;;5981855;23;20388;-93
2022/08/03 09:27:00;;;;;;;3.57;2.07;;;;;;;;;;5990141;23;20397;-92
2022/08/03 09:29:30;;;;;;;4.20;2.10;;;;;;;;;;5987120;23;20624;-93
2022/08/03 09:32:01;;;;;;;2.07;2.03;;;;;;;;;;5988818;23;20822;-93
2022/08/03 09:34:27;;;;;;;2.03;1.93;;;;;;;;;;6010961;23;20388;-91
2022/08/03 09:36:53;;;;;;;2.37;2.27;;;;;;;;;;5996332;23;20904;-91
2022/08/03 09:39:20;;;;;;;2.10;2.00;;;;;;;;;;5986387;23;20890;-93
2022/08/03 09:41:48;;;;;;;2.53;2.20;;;;;;;;;;5990029;23;20460;-92
2022/08/03 09:44:14;;;;;;;2.37;2.17;;;;;;;;;;5988489;23;20385;-92
2022/08/03 09:46:49;;;;;;;2.43;2.33;;;;;;;;;;6017414;23;20839;-93
2022/08/03 09:49:15;;;;;;;2.60;2.37;;;;;;;;;;5990687;23;20725;-92
2022/08/03 09:51:41;;;;;;;2.70;2.50;;;;;;;;;;5989854;23;20519;-92
2022/08/03 09:54:07;;;;;;;1.80;1.80;;;;;;;;;;5988946;23;20415;-92
2022/08/03 09:56:38;;;;;;;4.20;2.33;;;;;;;;;;5989196;23;20408;-91
2022/08/03 09:59:04;;;;;;;3.27;3.07;;;;;;;;;;5985329;23;20456;-92
2022/08/03 10:01:34;;;;;;;2.07;1.97;;;;;;;;;;5988256;23;20399;-91
2022/08/03 10:04:00;;;;;;;1.80;1.70;;;;;;;;;;6017430;23;20439;-91
2022/08/03 10:06:26;;;;;;;1.97;1.87;;;;;;;;;;6021526;23;20440;-91
2022/08/03 10:09:09;;;;;;;2.10;2.00;;;;;;;;;;6027218;23;20405;-90
2022/08/03 10:11:36;;;;;;;2.50;1.80;;;;;;;;;;6000645;23;20349;-94
2022/08/03 10:14:10;;;;;;;1.77;1.77;;;;;;;;;;6009380;23;20431;-93
2022/08/03 10:16:37;;;;;;;2.10;1.70;;;;;;;;;;6034561;23;20361;-91
2022/08/03 10:19:06;;;;;;;1.70;1.50;;;;;;;;;;6010648;23;20389;-93
2022/08/03 10:21:33;;;;;;;2.50;2.37;;;;;;;;;;6007506;23;20413;-94
2022/08/03 10:26:49;;;;;;;4.27;2.27;;;;;;;;;;6001613;23;20488;-93
2022/08/03 10:29:20;;;;;;;2.03;1.93;;;;;;;;;;5981338;23;20413;-93
2022/08/03 10:31:46;;;;;;;1.40;1.40;;;;;;;;;;5980349;23;20464;-91
2022/08/03 10:34:22;;;;;;;1.87;1.67;;;;;;;;;;5976900;24;20449;-91
2022/08/03 10:36:52;;;;;;;3.60;2.70;;;;;;;;;;5990906;23;20521;-92
2022/08/03 10:39:30;;;;;;;6.13;1.90;;;;;;;;;;5987190;23;20390;-94
2022/08/03 10:41:57;;;;;;;1.97;1.87;;;;;;;;;;5998498;24;20443;-93
2022/08/03 10:44:24;;;;;;;1.70;1.70;;;;;;;;;;6001944;24;20405;-94
2022/08/03 10:46:51;;;;;;;2.77;1.50;;;;;;;;;;5998769;24;20422;-89
2022/08/03 10:49:20;;;;;;;3.20;1.87;;;;;;;;;;5996295;24;20405;-93
2022/08/03 10:51:47;;;;;;;4.83;1.90;;;;;;;;;;5997344;24;20517;-92
2022/08/03 10:59:59;;;;;;;3.80;1.50;;;;;;;;;;6027136;23;20400;-93
2022/08/03 11:02:45;;;;;;;4.67;1.20;;;;;;;;;;6001916;23;20496;-93
2022/08/03 11:07:47;;;;;;;1.13;1.13;;;;;;;;;;6024738;23;20459;-90
2022/08/03 11:10:29;;;;;;;1.20;0.90;;;;;;;;;;5996839;23;20508;-94
2022/08/03 11:13:23;;;;;;;1.30;1.30;;;;;;;;;;6010205;23;20456;-95
2022/08/03 11:15:57;;;;;;;2.53;1.53;;;;;;;;;;6005389;23;20456;-93
2022/08/03 11:18:24;;;;;;;2.37;1.43;;;;;;;;;;6002796;23;20397;-92
2022/08/03 11:20:54;;;;;;;1.60;1.60;;;;;;;;;;5992854;23;20460;-94
2022/08/03 11:26:17;;;;;;;1.43;1.33;;;;;;;;;;6014376;23;20460;-95
2022/08/03 11:31:33;;;;;;;1.13;1.07;;;;;;;;;;6005424;23;20442;-92
2022/08/03 11:34:04;;;;;;;1.17;1.17;;;;;;;;;;6002108;23;20397;-95
2022/08/03 11:36:31;;;;;;;1.50;1.10;;;;;;;;;;5996751;24;20416;-96
2022/08/03 11:39:14;;;;;;;2.47;2.37;;;;;;;;;;5994386;24;20481;-95
2022/08/03 11:41:42;;;;;;;1.83;1.43;;;;;;;;;;6001500;24;20417;-90
2022/08/03 11:44:08;;;;;;;1.77;1.47;;;;;;;;;;5999183;23;20425;-92
2022/08/03 11:46:38;;;;;;;1.57;1.57;;;;;;;;;;5995552;24;20405;-92
2022/08/03 11:49:06;;;;;;;1.10;1.10;;;;;;;;;;5999662;24;20908;-93
2022/08/03 11:51:32;;;;;;;3.60;1.80;;;;;;;;;;5997106;24;20412;-95
2022/08/03 11:54:00;;;;;;;1.00;1.00;;;;;;;;;;5999344;24;20397;-94
2022/08/03 11:56:29;;;;;;;1.50;1.40;;;;;;;;;;6001407;24;20417;-94
2022/08/03 11:58:57;;;;;;;2.20;1.00;;;;;;;;;;5998316;24;20398;-94
2022/08/03 12:01:24;;;;;;;2.60;0.90;;;;;;;;;;5989955;23;20445;-91
2022/08/03 12:03:51;;;;;;;0.90;0.90;;;;;;;;;;5998251;23;20418;-93
2022/08/03 12:06:17;;;;;;;3.60;1.50;;;;;;;;;;5996299;24;20398;-91
2022/08/03 12:08:47;;;;;;;1.13;1.10;;;;;;;;;;5995910;24;20413;-92
2022/08/03 12:11:15;;;;;;;2.30;1.20;;;;;;;;;;5992596;24;20363;-93
2022/08/03 12:13:42;;;;;;;1.27;1.27;;;;;;;;;;5996155;24;20445;-94
2022/08/03 12:16:08;;;;;;;1.20;1.10;;;;;;;;;;5992187;24;20404;-96
2022/08/03 12:18:34;;;;;;;1.37;1.27;;;;;;;;;;5994002;24;20546;-96
2022/08/03 12:21:08;;;;;;;2.33;1.20;;;;;;;;;;5998198;24;20418;-96
2022/08/03 12:23:38;;;;;;;1.97;1.97;;;;;;;;;;5991253;24;20394;-92
2022/08/03 12:26:05;;;;;;;1.93;1.83;;;;;;;;;;5998257;23;20410;-92
2022/08/03 12:28:31;;;;;;;3.43;1.97;;;;;;;;;;5991186;24;20413;-92
2022/08/03 12:31:01;;;;;;;2.43;1.50;;;;;;;;;;5993221;23;20374;-93
2022/08/03 12:33:27;;;;;;;1.10;1.10;;;;;;;;;;5991317;24;20456;-94
2022/08/03 12:36:07;;;;;;;1.00;1.00;;;;;;;;;;5991265;24;20484;-94
2022/08/03 12:38:39;;;;;;;1.43;1.27;;;;;;;;;;6002414;23;20401;-95
2022/08/03 12:41:07;;;;;;;1.57;1.27;;;;;;;;;;6005870;23;20452;-91
2022/08/03 12:43:47;;;;;;;1.70;1.60;;;;;;;;;;6028639;23;20393;-93
2022/08/03 12:46:15;;;;;;;1.73;1.20;;;;;;;;;;6025588;23;20397;-94
2022/08/03 12:51:30;;;;;;;2.10;1.43;;;;;;;;;;5990874;23;20465;-93
2022/08/03 12:53:57;;;;;;;2.60;1.80;;;;;;;;;;6003962;23;20468;-90
2022/08/03 12:56:29;;;;;;;1.70;1.60;;;;;;;;;;5973085;24;20430;-94
2022/08/03 12:58:55;;;;;;;1.30;1.30;;;;;;;;;;5971400;24;20554;-92
2022/08/03 13:01:23;;;;;;;5.87;1.47;;;;;;;;;;5975747;24;20398;-94
2022/08/03 13:03:53;;;;;;;1.20;1.20;;;;;;;;;;5966572;23;20436;-92
2022/08/03 13:06:26;;;;;;;3.60;3.17;;;;;;;;;;6000293;23;20457;-93
2022/08/03 13:09:09;;;;;;;1.97;1.87;;;;;;;;;;6003160;24;20385;-96
2022/08/03 13:11:37;;;;;;;1.20;1.20;;;;;;;;;;5998128;24;20405;-94
2022/08/03 13:14:03;;;;;;;1.47;1.37;;;;;;;;;;5997129;24;20474;-91
2022/08/03 13:16:29;;;;;;;1.47;1.37;;;;;;;;;;5998102;24;20404;-95
2022/08/03 13:19:14;;;;;;;;;;;;;;;;;;;;;
2022/08/03 13:21:47;;;;;;;2.10;1.33;;;;;;;;;;6018018;23;20452;-93
2022/08/03 13:24:13;;;;;;;1.37;1.20;;;;;;;;;;5998554;23;20419;-96
2022/08/03 13:26:39;;;;;;;1.20;1.20;;;;;;;;;;6025217;23;20433;-92
2022/08/03 13:29:06;;;;;;;1.77;1.53;;;;;;;;;;6030334;23;20423;-90
2022/08/03 13:34:25;;;;;;;1.40;1.20;;;;;;;;;;6001253;23;20461;-94
2022/08/03 13:36:52;;;;;;;1.63;1.53;;;;;;;;;;5979450;24;20420;-87
2022/08/03 13:39:20;;;;;;;1.37;1.37;;;;;;;;;;5977455;24;20394;-92
2022/08/03 13:41:47;;;;;;;1.00;1.00;;;;;;;;;;5971525;24;20408;-94
2022/08/03 13:44:13;;;;;;;1.17;1.17;;;;;;;;;;5977850;24;20458;-93
2022/08/03 13:46:39;;;;;;;2.43;1.73;;;;;;;;;;5974261;24;20488;-93
2022/08/03 13:49:06;;;;;;;1.90;1.27;;;;;;;;;;5977954;24;20506;-93
2022/08/03 13:51:35;;;;;;;1.40;1.30;;;;;;;;;;5980516;24;20398;-90
2022/08/03 13:54:12;;;;;;;;;;;;;;;;;;;;;
2022/08/03 13:56:38;;;;;;;1.30;1.30;;;;;;;;;;6001714;23;20372;-92
2022/08/03 13:59:11;;;;;;;2.03;1.90;;;;;;;;;;5973024;24;20397;-92
2022/08/03 14:01:42;;;;;;;1.63;1.53;;;;;;;;;;5978844;24;20450;-93
2022/08/03 14:04:09;;;;;;;1.70;1.70;;;;;;;;;;5973579;23;21375;-92
2022/08/03 14:06:35;;;;;;;1.90;1.90;;;;;;;;;;5979798;24;20396;-91
2022/08/03 14:09:12;;;;;;;5.27;1.90;;;;;;;;;;5979604;24;20489;-93
2022/08/03 14:14:23;;;;;;;2.57;2.10;;;;;;;;;;5988400;23;20574;-88
2022/08/03 14:16:49;;;;;;;2.13;1.87;;;;;;;;;;6000477;23;20466;-92
2022/08/03 14:19:18;;;;;;;2.20;2.20;;;;;;;;;;5998404;24;20401;-93
2022/08/03 14:21:44;;;;;;;1.70;1.60;;;;;;;;;;5998332;24;20412;-94
2022/08/03 14:27:49;;;;;;;2.73;1.60;;;;;;;;;;6008649;23;20368;-93
2022/08/03 14:30:19;;;;;;;1.23;1.23;;;;;;;;;;6004288;24;20412;-94
2022/08/03 14:32:45;;;;;;;2.00;1.90;;;;;;;;;;6000467;24;20926;-92
2022/08/03 14:35:14;;;;;;;2.37;1.30;;;;;;;;;;5999039;24;20416;-92
2022/08/03 14:38:00;;;;;;;2.13;1.50;;;;;;;;;;6002204;23;20366;-92
2022/08/03 14:40:33;;;;;;;5.00;1.40;;;;;;;;;;5980074;24;20394;-94
2022/08/03 14:43:01;;;;;;;1.70;1.37;;;;;;;;;;6000455;24;20390;-93
2022/08/03 14:45:33;;;;;;;9.20;8.30;;;;;;;;;;6003669;24;20394;-91
2022/08/03 14:48:07;;;;;;;3.90;2.00;;;;;;;;;;6003434;23;20577;-93
2022/08/03 14:53:54;;;;;;;2.07;1.83;;;;;;;;;;6008718;23;20494;-93
2022/08/03 14:56:20;;;;;;;2.17;1.70;;;;;;;;;;6010181;23;20409;-91
2022/08/03 14:59:02;;;;;;;1.80;1.70;;;;;;;;;;6008234;23;20472;-92
2022/08/03 15:01:57;;;;;;;1.53;1.43;;;;;;;;;;6008282;23;20377;-92
2022/08/03 15:04:23;;;;;;;1.73;1.63;;;;;;;;;;6005983;23;20421;-91
2022/08/03 15:06:50;;;;;;;1.87;1.50;;;;;;;;;;6006995;23;20401;-91
2022/08/03 15:09:16;;;;;;;1.67;1.60;;;;;;;;;;6004957;23;20404;-93
2022/08/03 15:11:42;;;;;;;1.30;1.30;;;;;;;;;;6006432;23;20411;-93
2022/08/03 15:14:08;;;;;;;1.73;1.63;;;;;;;;;;5997200;23;20461;-90
2022/08/03 15:16:55;;;;;;;2.93;1.30;;;;;;;;;;6002087;24;20472;-93
2022/08/03 15:19:50;;;;;;;4.60;1.60;;;;;;;;;;6022992;23;20731;-91
2022/08/03 15:22:55;;;;;;;4.00;1.80;;;;;;;;;;5997422;24;20419;-93
2022/08/03 15:28:00;;;;;;;1.90;1.27;;;;;;;;;;6019044;23;20472;-92
2022/08/03 15:30:26;;;;;;;2.87;1.50;;;;;;;;;;6001888;23;20393;-95
2022/08/03 15:32:54;;;;;;;3.10;1.40;;;;;;;;;;6007822;23;20432;-92
2022/08/03 15:35:21;;;;;;;1.73;1.20;;;;;;;;;;6026277;23;20400;-91
2022/08/03 15:37:58;;;;;;;1.27;1.20;;;;;;;;;;6001704;23;20400;-95
2022/08/03 15:40:54;;;;;;;1.30;1.30;;;;;;;;;;6004259;23;20609;-93
2022/08/03 15:51:45;;;;;;;4.17;1.33;;;;;;;;;;6031674;23;20408;-95
2022/08/03 15:56:59;;;;;;;1.93;1.70;;;;;;;;;;5996847;23;20564;-89